Time;durP1;ratioP1;P1;durP2;ratioP2;P2;SDS_P1;SDS_P2;PMS_P1;PMS_P2;Temp;Humidity;BMP_temperature;BMP_pressure;BME280_temperature;BME280_humidity;BME280_pressure;Samples;Min_cycle;Max_cycle;Signal;HPM_P1;HPM_P2
2022/01/11 00:01:29;;;;;;;47.05;16.58;;;;;;;-149.78;100.00;50491.00;5073159;28;20036;-62
2022/01/11 00:03:55;;;;;;;48.30;17.50;;;;;;;-149.78;100.00;50491.00;5073161;28;20128;-62
2022/01/11 00:09:39;;;;;;;47.70;16.88;;;;;;;-149.78;100.00;50506.66;5028513;28;20052;-62
2022/01/11 00:12:08;;;;;;;44.85;15.20;;;;;;;-149.78;100.00;50502.75;5072977;28;20033;-63
2022/01/11 00:14:34;;;;;;;47.92;16.30;;;;;;;-149.78;100.00;50506.66;5072908;28;20464;-62
2022/01/11 00:17:00;;;;;;;48.65;16.02;;;;;;;-149.78;100.00;50498.81;5072264;28;20055;-68
2022/01/11 00:19:28;;;;;;;44.63;15.98;;;;;;;-149.78;100.00;50485.13;5071785;28;20033;-67
2022/01/11 00:21:56;;;;;;;43.33;15.70;;;;;;;-149.78;100.00;50471.44;5072625;28;20068;-68
2022/01/11 00:24:33;;;;;;;42.90;15.23;;;;;;;-149.78;100.00;50494.91;5072274;28;20127;-68
2022/01/11 00:27:08;;;;;;;46.60;15.27;;;;;;;-149.78;100.00;50502.75;5074010;28;20048;-68
2022/01/11 00:29:40;;;;;;;46.70;14.80;;;;;;;-149.78;100.00;50491.00;5079428;28;20039;-68
2022/01/11 00:32:10;;;;;;;43.58;15.88;;;;;;;-149.78;100.00;50498.81;5079692;28;20028;-68
2022/01/11 00:34:47;;;;;;;39.00;14.57;;;;;;;-149.78;100.00;50508.59;5079646;28;20039;-68
2022/01/11 00:37:12;;;;;;;39.28;14.80;;;;;;;-149.78;100.00;50483.19;5079722;28;20115;-68
2022/01/11 00:39:41;;;;;;;37.78;13.80;;;;;;;-149.78;100.00;50494.91;5079610;28;20154;-68
2022/01/11 00:42:07;;;;;;;39.15;13.70;;;;;;;-149.78;100.00;50502.75;5079909;28;20452;-68
2022/01/11 00:44:36;;;;;;;39.47;14.30;;;;;;;-149.78;100.00;50506.66;5079568;28;20040;-68
2022/01/11 00:47:01;;;;;;;39.13;13.40;;;;;;;-149.78;100.00;50487.09;5079521;28;20396;-68
2022/01/11 00:49:27;;;;;;;35.33;12.45;;;;;;;-149.78;100.00;50483.19;5079672;28;20024;-68
2022/01/11 00:51:53;;;;;;;31.60;12.82;;;;;;;-149.78;100.00;50496.88;5079606;28;20125;-68
2022/01/11 00:54:18;;;;;;;32.92;12.43;;;;;;;-149.78;100.00;50459.72;5079628;28;20078;-68
2022/01/11 00:56:44;;;;;;;27.80;11.65;;;;;;;-149.78;100.00;50510.56;5079110;28;20028;-63
2022/01/11 00:59:10;;;;;;;34.00;12.75;;;;;;;-149.78;100.00;50461.66;5079001;28;20033;-62
2022/01/11 01:01:37;;;;;;;35.30;12.50;;;;;;;-149.78;100.00;50520.34;5079238;28;20371;-62
2022/01/11 01:04:08;;;;;;;33.75;12.05;;;;;;;-149.78;100.00;50502.75;5079308;28;20037;-62
2022/01/11 01:06:34;;;;;;;31.23;11.40;;;;;;;-149.78;100.00;50479.28;5061323;28;20059;-62
2022/01/11 01:09:00;;;;;;;34.00;12.00;;;;;;;-149.78;100.00;50483.19;5079355;28;20036;-62
2022/01/11 01:11:25;;;;;;;28.80;11.48;;;;;;;-149.78;100.00;50485.13;5061440;28;20028;-62
2022/01/11 01:13:51;;;;;;;27.35;10.77;;;;;;;-149.78;100.00;50479.28;5079140;28;20468;-63
2022/01/11 01:16:18;;;;;;;31.05;11.85;;;;;;;-149.78;100.00;50510.56;5061224;28;20028;-68
2022/01/11 01:18:43;;;;;;;33.10;11.93;;;;;;;-149.78;100.00;50471.44;5079234;28;20127;-68
2022/01/11 01:21:10;;;;;;;35.95;12.40;;;;;;;-149.78;100.00;50506.66;5079632;28;20032;-68
2022/01/11 01:23:35;;;;;;;38.55;13.43;;;;;;;-149.78;100.00;50508.59;5079280;28;20029;-68
2022/01/11 01:26:01;;;;;;;34.25;12.63;;;;;;;-149.78;100.00;50510.56;5079047;28;20041;-68
2022/01/11 01:28:28;;;;;;;35.25;12.27;;;;;;;-149.78;100.00;50518.38;5079191;28;20041;-69
2022/01/11 01:30:55;;;;;;;34.38;12.23;;;;;;;-149.78;100.00;50489.03;5079046;28;20051;-68
2022/01/11 01:33:21;;;;;;;38.53;13.50;;;;;;;-149.78;100.00;50489.03;5079249;28;20043;-68
2022/01/11 01:35:53;;;;;;;40.20;12.95;;;;;;;-149.78;100.00;50455.81;5079145;28;20032;-68
2022/01/11 01:38:23;;;;;;;;;;;;;;;-149.78;100.00;50447.97;5078695;28;20032;-68
2022/01/11 01:40:50;;;;;;;34.75;12.43;;;;;;;-149.78;100.00;50510.56;5057974;28;19916;-68
2022/01/11 01:43:16;;;;;;;36.97;13.55;;;;;;;-149.78;100.00;50492.97;5075972;28;20115;-68
2022/01/11 01:45:44;;;;;;;35.90;12.60;;;;;;;-149.78;100.00;50506.66;5075675;28;20621;-68
2022/01/11 01:48:15;;;;;;;41.13;14.05;;;;;;;-149.78;100.00;50502.75;5058335;28;20036;-62
2022/01/11 01:50:41;;;;;;;40.20;13.15;;;;;;;-149.78;100.00;50537.94;5057905;28;20061;-63
2022/01/11 01:53:10;;;;;;;38.08;12.63;;;;;;;-149.78;100.00;50487.09;5075567;28;20377;-62
2022/01/11 01:55:39;;;;;;;41.83;13.60;;;;;;;-149.78;100.00;50471.44;5075725;28;20029;-62
2022/01/11 01:58:05;;;;;;;43.85;14.18;;;;;;;-149.78;100.00;50532.06;5075664;28;20391;-63
2022/01/11 02:00:31;;;;;;;39.80;13.18;;;;;;;-149.78;100.00;50543.81;5075470;28;20037;-63
2022/01/11 02:03:10;;;;;;;41.22;12.55;;;;;;;-149.78;100.00;50522.28;5075533;28;20086;-62
2022/01/11 02:05:36;;;;;;;36.75;13.43;;;;;;;-149.78;100.00;50487.09;5075160;28;20037;-62
2022/01/11 02:08:02;;;;;;;35.58;12.63;;;;;;;-149.78;100.00;50502.75;5075539;28;20194;-62
2022/01/11 02:10:28;;;;;;;38.30;11.32;;;;;;;-149.78;100.00;50510.56;5075726;28;20032;-62
2022/01/11 02:12:55;;;;;;;32.40;11.13;;;;;;;-149.78;100.00;50463.63;5075423;28;20491;-62
2022/01/11 02:15:20;;;;;;;31.85;10.20;;;;;;;-149.78;100.00;50494.91;5075188;28;20029;-62
2022/01/11 02:17:46;;;;;;;29.73;9.90;;;;;;;-149.78;100.00;50520.34;5075179;28;20037;-62
2022/01/11 02:20:13;;;;;;;33.05;10.38;;;;;;;-149.78;100.00;50520.34;5075378;28;20353;-62
2022/01/11 02:22:39;;;;;;;29.20;9.50;;;;;;;-149.78;100.00;50498.81;5067751;28;20028;-62
2022/01/11 02:25:05;;;;;;;25.92;9.05;;;;;;;-149.78;100.00;50492.97;5074946;28;20119;-62
2022/01/11 02:27:31;;;;;;;23.02;8.18;;;;;;;-149.78;100.00;50496.88;5074805;28;20198;-62
2022/01/11 02:29:57;;;;;;;25.38;8.30;;;;;;;-149.78;100.00;50500.78;5074963;28;20520;-63
2022/01/11 02:32:22;;;;;;;25.80;9.52;;;;;;;-149.78;100.00;50494.91;5074910;28;20044;-62
2022/01/11 02:34:48;;;;;;;26.42;8.65;;;;;;;-149.78;100.00;50483.19;5074526;28;20392;-62
2022/01/11 02:37:14;;;;;;;27.65;9.15;;;;;;;-149.78;100.00;50498.81;5074782;28;20044;-62
2022/01/11 02:39:39;;;;;;;26.10;8.85;;;;;;;-149.78;100.00;50506.66;5074639;28;20048;-62
2022/01/11 02:42:05;;;;;;;23.85;8.50;;;;;;;-149.78;100.00;50489.03;5074924;28;20038;-62
2022/01/11 02:44:32;;;;;;;22.42;8.30;;;;;;;-149.78;100.00;50522.28;5074604;28;20089;-62
2022/01/11 02:46:58;;;;;;;21.25;7.93;;;;;;;-149.78;100.00;50502.75;5074749;28;20047;-63
2022/01/11 02:49:24;;;;;;;22.23;8.50;;;;;;;-149.78;100.00;50500.78;5074722;28;20400;-62
2022/01/11 02:51:49;;;;;;;26.58;9.70;;;;;;;-149.78;100.00;50491.00;5073467;28;20124;-62
2022/01/11 02:54:16;;;;;;;22.65;9.27;;;;;;;-149.78;100.00;50502.75;5074519;28;20056;-62
2022/01/11 02:56:41;;;;;;;22.58;7.50;;;;;;;-149.78;100.00;50518.38;5048762;28;20059;-62
2022/01/11 02:59:07;;;;;;;22.23;8.00;;;;;;;-149.78;100.00;50512.50;5074335;28;20032;-62
2022/01/11 03:01:33;;;;;;;21.42;7.38;;;;;;;-149.78;100.00;50489.03;5074132;28;20040;-62
2022/01/11 03:03:58;;;;;;;18.60;6.90;;;;;;;-149.78;100.00;50502.75;5074032;28;20036;-62
2022/01/11 03:06:24;;;;;;;20.73;6.47;;;;;;;-149.78;100.00;50528.16;5073574;28;20426;-62
2022/01/11 03:08:50;;;;;;;19.83;7.57;;;;;;;-149.78;100.00;50471.44;5073428;28;20063;-62
2022/01/11 03:11:18;;;;;;;17.00;6.75;;;;;;;-149.78;100.00;50494.91;5070013;28;20056;-62
2022/01/11 03:13:43;;;;;;;18.60;6.18;;;;;;;-149.78;100.00;50483.19;5073888;28;20081;-63
2022/01/11 03:16:13;;;;;;;18.48;6.78;;;;;;;-149.78;100.00;50471.44;5056394;28;20028;-62
2022/01/11 03:18:39;;;;;;;16.45;5.85;;;;;;;-149.78;100.00;50489.03;5056198;28;20036;-62
2022/01/11 03:21:05;;;;;;;15.18;5.57;;;;;;;-149.78;100.00;50537.94;5074210;28;20041;-62
2022/01/11 03:23:33;;;;;;;14.82;5.55;;;;;;;-149.78;100.00;50498.81;5074004;28;20071;-62
2022/01/11 03:26:02;;;;;;;12.63;5.18;;;;;;;-149.78;100.00;50514.47;5073960;28;20044;-62
2022/01/11 03:28:28;;;;;;;13.50;4.70;;;;;;;-149.78;100.00;50565.31;5073781;28;20033;-62
2022/01/11 03:30:54;;;;;;;12.23;4.75;;;;;;;-149.78;100.00;50487.09;5073715;28;20123;-62
2022/01/11 03:33:20;;;;;;;11.07;4.45;;;;;;;-149.78;100.00;50510.56;5049342;28;20028;-63
2022/01/11 03:35:45;;;;;;;13.60;5.38;;;;;;;-149.78;100.00;50494.91;5073545;28;20036;-63
2022/01/11 03:38:12;;;;;;;9.70;4.32;;;;;;;-149.78;100.00;50494.91;5073664;28;20043;-62
2022/01/11 03:40:39;;;;;;;11.90;4.85;;;;;;;-149.78;100.00;50526.22;5072728;28;20043;-62
2022/01/11 03:43:06;;;;;;;10.77;4.75;;;;;;;-149.78;100.00;50471.44;5055407;28;20086;-62
2022/01/11 03:45:33;;;;;;;10.82;5.10;;;;;;;-149.78;100.00;50506.66;5073287;28;20039;-62
2022/01/11 03:48:01;;;;;;;10.07;4.50;;;;;;;-149.78;100.00;50510.56;5073688;28;20548;-62
2022/01/11 03:50:29;;;;;;;11.85;4.25;;;;;;;-149.78;100.00;50534.03;5073557;28;20036;-63
2022/01/11 03:53:00;;;;;;;8.15;3.95;;;;;;;-149.78;100.00;50481.22;5073751;28;20403;-68
2022/01/11 03:56:28;;;;;;;11.98;4.28;;;;;;;-149.78;100.00;50520.34;5073534;28;20025;-68
2022/01/11 03:58:26;;;;;;;8.68;3.83;;;;;;;-149.78;100.00;50516.44;5059865;28;20048;-68
2022/01/11 04:00:53;;;;;;;9.20;4.05;;;;;;;-149.78;100.00;50512.50;5073496;28;20055;-68
2022/01/11 04:03:19;;;;;;;8.05;3.35;;;;;;;-149.78;100.00;50498.81;5073005;28;20039;-68
2022/01/11 04:05:46;;;;;;;8.52;3.83;;;;;;;-149.78;100.00;50534.03;5054864;28;20396;-68
2022/01/11 04:08:12;;;;;;;7.50;3.60;;;;;;;-149.78;100.00;50510.56;5073220;28;20040;-68
2022/01/11 04:10:38;;;;;;;8.70;4.03;;;;;;;-149.78;100.00;50537.94;5073007;28;20033;-68
2022/01/11 04:13:05;;;;;;;7.57;3.45;;;;;;;-149.78;100.00;50508.59;5073669;28;20032;-68
2022/01/11 04:15:31;;;;;;;8.68;3.72;;;;;;;-149.78;100.00;50510.56;5072694;28;20116;-68
2022/01/11 04:17:57;;;;;;;8.70;3.47;;;;;;;-149.78;100.00;50483.19;5055182;28;20037;-68
2022/01/11 04:20:22;;;;;;;7.80;3.60;;;;;;;-149.78;100.00;50463.63;5073210;28;20539;-68
2022/01/11 04:22:49;;;;;;;8.57;3.60;;;;;;;-149.78;100.00;50504.69;5073156;28;20036;-68
2022/01/11 04:25:16;;;;;;;8.15;3.60;;;;;;;-149.78;100.00;50481.22;5054910;28;20055;-68
2022/01/11 04:27:45;;;;;;;6.75;3.53;;;;;;;-149.78;100.00;50498.81;5072926;28;20046;-68
2022/01/11 04:30:11;;;;;;;8.13;4.00;;;;;;;-149.78;100.00;50510.56;5068839;28;20614;-68
2022/01/11 04:32:37;;;;;;;7.20;3.30;;;;;;;-149.78;100.00;50510.56;5054712;28;20415;-68
2022/01/11 04:35:07;;;;;;;7.78;3.42;;;;;;;-149.78;100.00;50494.91;5072811;28;20060;-68
2022/01/11 04:37:32;;;;;;;8.38;3.40;;;;;;;-149.78;100.00;50494.91;5071454;28;20032;-68
2022/01/11 04:39:58;;;;;;;9.90;4.50;;;;;;;-149.78;100.00;50512.50;5072935;28;20059;-63
2022/01/11 04:42:24;;;;;;;7.80;3.72;;;;;;;-149.78;100.00;50506.66;5072684;28;20461;-63
2022/01/11 04:44:49;;;;;;;6.55;3.15;;;;;;;-149.78;100.00;50494.91;5072600;28;20387;-63
2022/01/11 04:47:15;;;;;;;8.60;3.75;;;;;;;-149.78;100.00;50506.66;5072877;28;20483;-62
2022/01/11 04:49:41;;;;;;;8.85;4.00;;;;;;;-149.78;100.00;50502.75;5072630;28;20036;-63
2022/01/11 04:52:06;;;;;;;8.35;4.30;;;;;;;-149.78;100.00;50487.09;5072781;28;20124;-68
2022/01/11 04:54:32;;;;;;;9.20;3.67;;;;;;;-149.78;100.00;50512.50;5072574;28;20029;-68
2022/01/11 04:56:58;;;;;;;6.50;3.60;;;;;;;-149.78;100.00;50498.81;5072515;28;20032;-68
2022/01/11 04:59:24;;;;;;;7.53;3.80;;;;;;;-149.78;100.00;50520.34;5072478;28;20399;-68
2022/01/11 05:01:50;;;;;;;5.80;2.70;;;;;;;-149.78;100.00;50483.19;5054622;28;20032;-68
2022/01/11 05:04:16;;;;;;;8.05;3.28;;;;;;;-149.78;100.00;50518.38;5072109;28;20522;-68
2022/01/11 05:06:41;;;;;;;4.85;2.13;;;;;;;-149.78;100.00;50514.47;5072176;28;20029;-68
2022/01/11 05:09:07;;;;;;;3.28;1.90;;;;;;;-149.78;100.00;50469.50;5072387;28;20041;-68
2022/01/11 05:11:33;;;;;;;2.88;1.52;;;;;;;-149.78;100.00;50502.75;5072219;28;20040;-68
2022/01/11 05:13:58;;;;;;;1.65;1.00;;;;;;;-149.78;100.00;50510.56;5073050;28;20052;-62
2022/01/11 05:16:24;;;;;;;1.65;1.02;;;;;;;-149.78;100.00;50520.34;5076006;28;20032;-63
2022/01/11 05:18:49;;;;;;;2.08;0.90;;;;;;;-149.78;100.00;50498.81;5075969;28;20162;-62
2022/01/11 05:21:15;;;;;;;2.10;1.30;;;;;;;-149.78;100.00;50494.91;5075875;28;20049;-63
2022/01/11 05:23:41;;;;;;;2.95;1.45;;;;;;;-149.78;100.00;50491.00;5075956;28;20561;-63
2022/01/11 05:26:07;;;;;;;5.13;1.65;;;;;;;-149.78;100.00;50491.00;5075954;28;20044;-63
2022/01/11 05:28:34;;;;;;;1.95;1.20;;;;;;;-149.78;100.00;50510.56;5076071;28;20040;-63
2022/01/11 05:31:02;;;;;;;3.85;1.40;;;;;;;-149.78;100.00;50518.38;5076167;28;20037;-63
2022/01/11 05:33:28;;;;;;;3.58;1.40;;;;;;;-149.78;100.00;50502.75;5076251;28;20115;-63
2022/01/11 05:35:53;;;;;;;3.25;1.30;;;;;;;-149.78;100.00;50553.59;5058219;28;20025;-63
2022/01/11 05:38:20;;;;;;;3.30;1.35;;;;;;;-149.78;100.00;50506.66;5058314;28;20048;-63
2022/01/11 05:40:45;;;;;;;1.98;1.20;;;;;;;-149.78;100.00;50522.28;5058084;28;20094;-62
2022/01/11 05:43:12;;;;;;;3.13;1.40;;;;;;;-149.78;100.00;50479.28;5058172;28;20131;-63
2022/01/11 05:45:38;;;;;;;4.70;1.05;;;;;;;-149.78;100.00;50522.28;5075738;28;20116;-63
2022/01/11 05:48:04;;;;;;;2.28;0.98;;;;;;;-149.78;100.00;50502.75;5075997;28;20058;-63
2022/01/11 05:50:31;;;;;;;3.65;0.80;;;;;;;-149.78;100.00;50522.28;5075670;28;20041;-63
2022/01/11 05:52:56;;;;;;;2.05;0.75;;;;;;;-149.78;100.00;50506.66;5075616;28;20438;-62
2022/01/11 05:55:22;;;;;;;1.70;0.90;;;;;;;-149.78;100.00;50492.97;5057720;28;20025;-63
2022/01/11 05:57:48;;;;;;;1.23;0.60;;;;;;;-149.78;100.00;50530.13;5075211;28;20391;-63
2022/01/11 06:00:17;;;;;;;8.30;0.95;;;;;;;-149.78;100.00;50537.94;5075429;28;20568;-63
2022/01/11 06:02:46;;;;;;;1.17;0.70;;;;;;;-149.78;100.00;50500.78;5074974;28;20043;-63
2022/01/11 06:05:16;;;;;;;3.25;0.90;;;;;;;-149.78;100.00;50481.22;5074892;28;20435;-63
2022/01/11 06:07:43;;;;;;;2.63;0.85;;;;;;;-149.78;100.00;50528.16;5057087;28;20052;-62
2022/01/11 06:10:09;;;;;;;2.45;1.33;;;;;;;-149.78;100.00;50526.22;5075424;28;20083;-63
2022/01/11 06:12:34;;;;;;;2.15;1.00;;;;;;;-149.78;100.00;50479.28;5075091;28;20380;-63
2022/01/11 06:15:00;;;;;;;6.10;0.70;;;;;;;-149.78;100.00;50475.34;5057250;28;20048;-63
2022/01/11 06:17:26;;;;;;;5.28;1.02;;;;;;;-149.78;100.00;50494.91;5074863;28;20149;-63
2022/01/11 06:19:51;;;;;;;3.83;1.00;;;;;;;-149.78;100.00;50494.91;5074706;28;20048;-63
2022/01/11 06:22:18;;;;;;;4.00;0.98;;;;;;;-149.78;100.00;50537.94;5074750;28;20119;-63
2022/01/11 06:24:43;;;;;;;4.00;0.93;;;;;;;-149.78;100.00;50487.09;5074334;28;20040;-63
2022/01/11 06:27:09;;;;;;;4.22;1.00;;;;;;;-149.78;100.00;50545.75;5074624;28;20131;-63
2022/01/11 06:29:34;;;;;;;6.80;1.17;;;;;;;-149.78;100.00;50514.47;5074986;28;20036;-63
2022/01/11 06:32:01;;;;;;;4.97;1.10;;;;;;;-149.78;100.00;50506.66;5075155;28;20486;-63
2022/01/11 06:34:27;;;;;;;3.47;1.33;;;;;;;-149.78;100.00;50475.34;5075194;28;20048;-63
2022/01/11 06:36:52;;;;;;;2.72;1.05;;;;;;;-149.78;100.00;50500.78;5075021;28;20033;-63
2022/01/11 06:39:18;;;;;;;4.93;1.30;;;;;;;-149.78;100.00;50514.47;5074971;28;20115;-63
2022/01/11 06:41:43;;;;;;;3.00;0.90;;;;;;;-149.78;100.00;50463.63;5040141;28;20064;-62
2022/01/11 06:44:10;;;;;;;5.78;1.00;;;;;;;-149.78;100.00;50506.66;5074784;28;20032;-63
2022/01/11 06:46:37;;;;;;;2.50;1.17;;;;;;;-149.78;100.00;50498.81;5074656;28;20040;-62
2022/01/11 06:49:04;;;;;;;2.50;1.02;;;;;;;-149.78;100.00;50530.13;5074691;28;20115;-63
2022/01/11 06:51:30;;;;;;;4.50;1.10;;;;;;;-149.78;100.00;50510.56;5074505;28;20036;-63
2022/01/11 06:53:56;;;;;;;3.72;1.23;;;;;;;-149.78;100.00;50506.66;5056634;28;20041;-63
2022/01/11 06:56:22;;;;;;;3.10;1.20;;;;;;;-149.78;100.00;50514.47;5074504;28;20050;-63
2022/01/11 06:58:48;;;;;;;3.58;2.63;;;;;;;-149.78;100.00;50545.75;5073876;28;20098;-63
2022/01/11 07:01:14;;;;;;;4.38;1.20;;;;;;;-149.78;100.00;50510.56;5074416;28;20434;-63
2022/01/11 07:03:41;;;;;;;4.65;1.33;;;;;;;-149.78;100.00;50530.13;5056330;28;20082;-62
2022/01/11 07:06:06;;;;;;;3.58;1.50;;;;;;;-149.78;100.00;50502.75;5067845;28;20029;-63
2022/01/11 07:08:32;;;;;;;4.13;1.13;;;;;;;-149.78;100.00;50479.28;5059447;28;20029;-63
2022/01/11 07:10:58;;;;;;;3.97;1.10;;;;;;;-149.78;100.00;50487.09;5062346;28;20032;-63
2022/01/11 07:13:24;;;;;;;2.38;1.35;;;;;;;-149.78;100.00;50506.66;5059363;28;20485;-62
2022/01/11 07:15:49;;;;;;;3.35;1.20;;;;;;;-149.78;100.00;50506.66;5059060;28;20029;-63
2022/01/11 07:18:15;;;;;;;6.57;1.20;;;;;;;-149.78;100.00;50475.34;5066349;28;20047;-68
2022/01/11 07:20:44;;;;;;;6.88;2.65;;;;;;;-149.78;100.00;50494.91;5062924;28;20037;-68
2022/01/11 07:23:11;;;;;;;5.57;1.70;;;;;;;-149.78;100.00;50502.75;5064110;28;20078;-68
2022/01/11 07:25:38;;;;;;;6.28;1.30;;;;;;;-149.78;100.00;50518.38;5058308;28;20045;-68
2022/01/11 07:28:04;;;;;;;4.50;1.10;;;;;;;-149.78;100.00;50491.00;5058976;28;20059;-68
2022/01/11 07:30:30;;;;;;;5.05;1.30;;;;;;;-149.78;100.00;50514.47;5062111;28;20157;-68
2022/01/11 07:32:56;;;;;;;3.08;1.73;;;;;;;-149.78;100.00;50522.28;5052012;28;20646;-70
2022/01/11 07:35:23;;;;;;;7.00;1.75;;;;;;;-149.78;100.00;50534.03;5064166;28;20518;-68
2022/01/11 07:37:51;;;;;;;8.40;1.77;;;;;;;-149.78;100.00;50487.09;5060755;28;20039;-68
2022/01/11 07:40:16;;;;;;;9.48;1.85;;;;;;;-149.78;100.00;50504.69;5053639;28;20045;-68
2022/01/11 07:42:42;;;;;;;5.57;1.85;;;;;;;-149.78;100.00;50502.75;5069627;28;20178;-69
2022/01/11 07:45:08;;;;;;;5.38;1.60;;;;;;;-149.78;100.00;50514.47;5070395;28;20029;-67
2022/01/11 07:47:33;;;;;;;5.38;1.80;;;;;;;-149.78;100.00;50485.13;5070250;28;20459;-68
2022/01/11 07:49:59;;;;;;;5.45;2.10;;;;;;;-149.78;100.00;50545.75;5065290;28;20033;-67
2022/01/11 07:52:25;;;;;;;6.43;2.17;;;;;;;-149.78;100.00;50510.56;5060732;28;20033;-67
2022/01/11 07:54:52;;;;;;;9.70;2.33;;;;;;;-149.78;100.00;50512.50;5053258;28;20041;-66
2022/01/11 07:57:18;;;;;;;6.50;2.15;;;;;;;-149.78;100.00;50502.75;5053434;28;20064;-67
2022/01/11 07:59:44;;;;;;;9.18;2.20;;;;;;;-149.78;100.00;50512.50;5035579;28;20481;-68
2022/01/11 08:02:09;;;;;;;10.13;2.13;;;;;;;-149.78;100.00;50506.66;5061545;28;20182;-68
2022/01/11 08:04:35;;;;;;;8.80;2.72;;;;;;;-149.78;100.00;50498.81;5039566;28;20518;-67
2022/01/11 08:07:01;;;;;;;11.35;2.30;;;;;;;-149.78;100.00;50506.66;5061179;28;20041;-68
2022/01/11 08:09:28;;;;;;;10.75;2.20;;;;;;;-149.78;100.00;50504.69;5059164;28;20055;-68
2022/01/11 08:11:58;;;;;;;8.77;2.53;;;;;;;-149.78;100.00;50526.22;5062757;28;20040;-68
2022/01/11 08:14:24;;;;;;;11.13;2.47;;;;;;;-149.78;100.00;50500.78;5039958;28;20048;-68
2022/01/11 08:16:50;;;;;;;7.22;2.03;;;;;;;-149.78;100.00;50487.09;5038683;28;20547;-68
2022/01/11 08:19:16;;;;;;;9.98;3.22;;;;;;;-149.78;100.00;50479.28;5056110;28;20062;-68
2022/01/11 08:21:42;;;;;;;13.93;2.83;;;;;;;-149.78;100.00;50485.13;5052795;28;20109;-67
2022/01/11 08:24:08;;;;;;;8.50;2.30;;;;;;;-149.78;100.00;50518.38;5058104;28;20041;-68
2022/01/11 08:26:33;;;;;;;6.18;2.60;;;;;;;-149.78;100.00;50504.69;5054961;28;20037;-68
2022/01/11 08:28:59;;;;;;;7.47;3.05;;;;;;;-149.78;100.00;50514.47;5057415;28;20442;-68
2022/01/11 08:31:24;;;;;;;11.70;3.10;;;;;;;-149.78;100.00;50535.97;5050574;28;20065;-67
2022/01/11 08:33:50;;;;;;;6.78;2.90;;;;;;;-149.78;100.00;50510.56;5065847;28;20163;-62
2022/01/11 08:36:16;;;;;;;9.88;2.95;;;;;;;-149.78;100.00;50534.03;5062431;28;20047;-62
2022/01/11 08:38:42;;;;;;;13.48;2.42;;;;;;;-149.78;100.00;50518.38;5053516;28;20044;-62
2022/01/11 08:41:08;;;;;;;7.20;2.28;;;;;;;-149.78;100.00;50526.22;5070152;28;20044;-62
2022/01/11 08:43:33;;;;;;;8.00;2.97;;;;;;;-149.78;100.00;50498.81;5072962;28;20032;-62
2022/01/11 08:46:02;;;;;;;14.63;2.90;;;;;;;-149.78;100.00;50532.06;5072854;28;20043;-62
2022/01/11 08:48:28;;;;;;;12.88;2.90;;;;;;;-149.78;100.00;50541.84;5074490;28;20474;-62
2022/01/11 08:50:54;;;;;;;15.65;3.35;;;;;;;-149.78;100.00;50588.78;5076884;28;20043;-62
2022/01/11 08:53:21;;;;;;;10.13;3.35;;;;;;;-149.78;100.00;50510.56;5057420;28;20242;-63
2022/01/11 08:55:48;;;;;;;12.00;2.40;;;;;;;-149.78;100.00;50502.75;5056804;28;20037;-62
2022/01/11 08:58:15;;;;;;;18.08;3.75;;;;;;;-149.78;100.00;50537.94;5056748;28;20037;-62
2022/01/11 09:00:42;;;;;;;10.27;3.22;;;;;;;-149.78;100.00;50545.75;5056480;28;20049;-63
2022/01/11 09:03:07;;;;;;;14.70;3.47;;;;;;;-149.78;100.00;50506.66;5038405;28;20033;-63
2022/01/11 09:05:33;;;;;;;12.20;3.40;;;;;;;-149.78;100.00;50498.81;5056240;28;20041;-62
2022/01/11 09:07:59;;;;;;;21.58;4.55;;;;;;;-149.78;100.00;50518.38;5056196;28;20041;-62
2022/01/11 09:10:24;;;;;;;16.70;4.45;;;;;;;-149.78;100.00;50494.91;5030397;28;20064;-62
2022/01/11 09:12:50;;;;;;;17.65;3.92;;;;;;;-149.78;100.00;50522.28;5056102;28;20064;-62
2022/01/11 09:15:17;;;;;;;21.13;3.80;;;;;;;-149.78;100.00;50545.75;5055946;28;20056;-62
2022/01/11 09:17:43;;;;;;;17.60;4.90;;;;;;;-149.78;100.00;50518.38;5056599;28;20043;-62
2022/01/11 09:20:11;;;;;;;22.50;4.65;;;;;;;-149.78;100.00;50506.66;5075761;28;20036;-62
2022/01/11 09:22:39;;;;;;;22.13;4.70;;;;;;;-149.78;100.00;50502.75;5075781;28;20537;-62
2022/01/11 09:25:06;;;;;;;18.63;4.85;;;;;;;-149.78;100.00;50541.84;5070410;28;20085;-63
2022/01/11 09:27:32;;;;;;;18.40;5.15;;;;;;;-149.78;100.00;50530.13;5075964;28;20086;-62
2022/01/11 09:30:00;;;;;;;16.20;4.28;;;;;;;-149.78;100.00;50549.69;5066362;28;20056;-63
2022/01/11 09:32:26;;;;;;;22.40;4.60;;;;;;;-149.78;100.00;50510.56;5066760;28;20124;-62
2022/01/11 09:34:52;;;;;;;24.25;5.05;;;;;;;-149.78;100.00;50479.28;5063016;28;20049;-63
2022/01/11 09:37:18;;;;;;;19.90;5.22;;;;;;;-149.78;100.00;50534.03;5056128;28;20040;-62
2022/01/11 09:39:43;;;;;;;18.40;4.50;;;;;;;-149.78;100.00;50502.75;5056005;28;20060;-62
2022/01/11 09:42:09;;;;;;;22.98;5.75;;;;;;;-149.78;100.00;50514.47;5067747;28;20039;-62
2022/01/11 09:44:38;;;;;;;23.35;6.18;;;;;;;-149.78;100.00;50492.97;5075402;28;20041;-62
2022/01/11 09:47:07;;;;;;;21.52;5.10;;;;;;;-149.78;100.00;50526.22;5048415;28;20033;-62
2022/01/11 09:49:33;;;;;;;22.77;4.65;;;;;;;-149.78;100.00;50553.59;5063923;28;20036;-63
2022/01/11 09:52:01;;;;;;;24.70;5.35;;;;;;;-149.78;100.00;50491.00;5057307;28;20036;-62
2022/01/11 09:54:27;;;;;;;20.02;5.30;;;;;;;-149.78;100.00;50514.47;5055339;28;20032;-62
2022/01/11 09:56:53;;;;;;;18.73;4.47;;;;;;;-149.78;100.00;50526.22;5055195;28;20032;-63
2022/01/11 09:59:19;;;;;;;24.48;4.82;;;;;;;-149.78;100.00;50459.72;5063129;28;20496;-62
2022/01/11 10:01:44;;;;;;;22.73;5.40;;;;;;;-149.78;100.00;50494.91;5066026;28;20490;-63
2022/01/11 10:04:13;;;;;;;22.15;4.93;;;;;;;-149.78;100.00;50532.06;5075144;28;20047;-62
2022/01/11 10:06:42;;;;;;;15.15;4.85;;;;;;;-149.78;100.00;50545.75;5075031;28;20082;-63
2022/01/11 10:09:16;;;;;;;23.60;5.68;;;;;;;-149.78;100.00;50492.97;5075150;28;20067;-62
2022/01/11 10:11:45;;;;;;;22.88;4.57;;;;;;;-149.78;100.00;50516.44;5075293;28;20048;-62
2022/01/11 10:14:31;;;;;;;15.82;4.18;;;;;;;-149.78;100.00;50541.84;5075527;28;20039;-62
2022/01/11 10:17:16;;;;;;;15.50;4.10;;;;;;;-149.78;100.00;50498.81;5064168;28;20048;-62
2022/01/11 10:19:46;;;;;;;21.30;4.57;;;;;;;-149.78;100.00;50530.13;5072225;28;20081;-63
2022/01/11 10:22:19;;;;;;;21.88;4.25;;;;;;;-149.78;100.00;50498.81;5075133;28;20391;-62
2022/01/11 10:24:48;;;;;;;17.20;4.32;;;;;;;-149.78;100.00;50498.81;5075024;28;20384;-62
2022/01/11 10:27:26;;;;;;;19.52;4.32;;;;;;;-149.78;100.00;50510.56;5074583;28;20045;-63
2022/01/11 10:30:17;;;;;;;15.43;4.47;;;;;;;-149.78;100.00;50512.50;5075190;28;20033;-68
2022/01/11 10:32:45;;;;;;;21.92;4.10;;;;;;;-149.78;100.00;50487.09;5040478;28;20601;-68
2022/01/11 10:35:19;;;;;;;19.42;4.43;;;;;;;-149.78;100.00;50498.81;5061095;28;20029;-69
2022/01/11 10:37:51;;;;;;;16.85;4.60;;;;;;;-149.78;100.00;50498.81;5054903;28;20385;-68
2022/01/11 10:40:20;;;;;;;15.50;4.15;;;;;;;-149.78;100.00;50545.75;5068980;28;20033;-69
2022/01/11 10:42:52;;;;;;;25.08;5.68;;;;;;;-149.78;100.00;50514.47;5074866;28;20047;-69
2022/01/11 10:45:24;;;;;;;23.70;4.68;;;;;;;-149.78;100.00;50510.56;5069994;28;20395;-69
2022/01/11 10:47:58;;;;;;;17.70;4.47;;;;;;;-149.78;100.00;50537.94;5054773;28;20032;-69
2022/01/11 10:50:34;;;;;;;19.85;4.45;;;;;;;-149.78;100.00;50502.75;5036859;28;20040;-69
2022/01/11 10:53:06;;;;;;;23.17;4.40;;;;;;;-149.78;100.00;50498.81;5064976;28;20033;-69
2022/01/11 10:55:34;;;;;;;17.80;4.28;;;;;;;-149.78;100.00;50498.81;5056962;28;20356;-68
2022/01/11 10:58:02;;;;;;;22.08;5.57;;;;;;;-149.78;100.00;50530.13;5074806;28;20035;-69
2022/01/11 11:00:34;;;;;;;17.75;4.00;;;;;;;-149.78;100.00;50543.81;5056646;28;20492;-69
2022/01/11 11:03:09;;;;;;;23.50;4.00;;;;;;;-149.78;100.00;50494.91;5054880;28;20021;-69
2022/01/11 11:05:36;;;;;;;21.35;4.30;;;;;;;-149.78;100.00;50514.47;5054308;28;20041;-69
2022/01/11 11:08:06;;;;;;;21.98;4.65;;;;;;;-149.78;100.00;50510.56;5054281;28;20174;-69